createdAt,value
2019-03-08T00:00:52.947Z,1.60
2019-03-08T00:03:21.335Z,2.10
2019-03-08T00:05:49.705Z,1.33
2019-03-08T00:08:18.091Z,1.57
2019-03-08T00:10:46.462Z,1.83
2019-03-08T00:13:14.847Z,2.30
2019-03-08T00:15:43.221Z,1.53
2019-03-08T00:18:11.602Z,1.77
2019-03-08T00:20:39.973Z,1.73
2019-03-08T00:23:08.358Z,2.03
2019-03-08T00:25:36.796Z,1.60
2019-03-08T00:28:05.167Z,1.70
2019-03-08T00:30:33.553Z,1.33
2019-03-08T00:33:01.924Z,1.47
2019-03-08T00:35:30.544Z,2.27
2019-03-08T00:37:58.919Z,1.80
2019-03-08T00:40:46.635Z,1.43
2019-03-08T00:43:15.011Z,1.07
2019-03-08T00:45:43.392Z,1.90
2019-03-08T00:48:11.783Z,1.33
2019-03-08T00:50:40.155Z,1.60
2019-03-08T00:53:08.540Z,1.53
2019-03-08T00:55:37.096Z,2.00
2019-03-08T00:58:05.480Z,1.40
2019-03-08T01:00:33.987Z,1.70
2019-03-08T01:03:02.372Z,1.97
2019-03-08T01:05:30.739Z,1.83
2019-03-08T01:07:59.130Z,1.53
2019-03-08T01:10:27.867Z,1.83
2019-03-08T01:12:56.248Z,1.70
2019-03-08T01:15:24.626Z,1.47
2019-03-08T01:17:52.991Z,1.77
2019-03-08T01:20:21.722Z,1.43
2019-03-08T01:22:50.098Z,2.03
2019-03-08T01:25:18.854Z,1.40
2019-03-08T01:28:07.707Z,2.13
2019-03-08T01:30:37.740Z,2.10
2019-03-08T01:33:06.179Z,1.50
2019-03-08T01:35:54.289Z,1.60
2019-03-08T01:38:22.667Z,1.63
2019-03-08T01:40:51.058Z,1.57
2019-03-08T01:43:19.504Z,2.00
2019-03-08T01:45:47.883Z,1.57
2019-03-08T01:48:16.272Z,2.13
2019-03-08T01:50:44.658Z,1.93
2019-03-08T01:53:13.042Z,2.37
2019-03-08T01:55:41.415Z,2.17
2019-03-08T01:58:09.804Z,1.47
2019-03-08T02:00:40.825Z,2.10
2019-03-08T02:03:09.351Z,2.53
2019-03-08T02:05:37.724Z,2.47
2019-03-08T02:08:25.460Z,2.03
2019-03-08T02:10:53.840Z,1.93
2019-03-08T02:13:22.212Z,1.93
2019-03-08T02:15:50.616Z,3.03
2019-03-08T02:18:19.007Z,2.37
2019-03-08T02:20:47.380Z,2.80
2019-03-08T02:23:15.835Z,1.93
2019-03-08T02:25:45.635Z,2.50
2019-03-08T02:28:14.163Z,2.20
2019-03-08T02:30:42.560Z,2.37
2019-03-08T02:33:10.936Z,1.77
2019-03-08T02:35:39.709Z,1.90
2019-03-08T02:38:08.095Z,2.20
2019-03-08T02:40:37.910Z,2.27
2019-03-08T02:43:08.317Z,2.40
2019-03-08T02:45:36.783Z,2.60
2019-03-08T02:48:05.503Z,2.00
2019-03-08T02:50:33.951Z,2.17
2019-03-08T02:53:02.341Z,1.77
2019-03-08T02:55:31.002Z,2.00
2019-03-08T02:57:59.386Z,2.23
2019-03-08T03:00:30.827Z,2.27
2019-03-08T03:02:59.211Z,0.97
2019-03-08T03:05:27.575Z,2.60
2019-03-08T03:07:55.951Z,2.00
2019-03-08T03:10:24.597Z,1.70
2019-03-08T03:12:53.031Z,2.00
2019-03-08T03:15:21.411Z,1.70
2019-03-08T03:17:49.829Z,2.23
2019-03-08T03:20:18.363Z,1.37
2019-03-08T03:22:46.762Z,1.20
2019-03-08T03:25:16.042Z,1.43
2019-03-08T03:27:44.427Z,1.57
2019-03-08T03:30:19.746Z,1.90
2019-03-08T03:32:48.121Z,1.70
2019-03-08T03:35:16.499Z,1.80
2019-03-08T03:38:04.591Z,1.97
2019-03-08T03:40:32.963Z,1.70
2019-03-08T03:43:01.343Z,1.33
2019-03-08T03:45:29.711Z,1.50
2019-03-08T03:47:58.095Z,2.77
2019-03-08T03:50:26.475Z,3.10
2019-03-08T03:52:54.848Z,4.00
2019-03-08T03:55:23.231Z,3.33
2019-03-08T03:57:51.608Z,3.73
2019-03-08T04:00:21.623Z,3.07
2019-03-08T04:02:49.991Z,3.77
2019-03-08T04:05:18.495Z,3.10
2019-03-08T04:07:46.909Z,3.30
2019-03-08T04:10:16.325Z,2.73
2019-03-08T04:12:44.709Z,3.17
2019-03-08T04:15:15.414Z,2.43
2019-03-08T04:17:44.163Z,2.47
2019-03-08T04:20:17.243Z,2.70
2019-03-08T04:22:45.679Z,2.20
2019-03-08T04:25:14.600Z,1.47
2019-03-08T04:27:42.974Z,1.87
2019-03-08T04:30:18.335Z,1.50
2019-03-08T04:32:46.715Z,2.10
2019-03-08T04:35:15.103Z,1.93
2019-03-08T04:37:43.488Z,1.10
2019-03-08T04:40:13.537Z,1.10
2019-03-08T04:42:41.989Z,1.80
2019-03-08T04:45:12.664Z,1.77
2019-03-08T04:47:41.205Z,1.47
2019-03-08T04:50:11.713Z,1.50
2019-03-08T04:52:40.095Z,1.80
2019-03-08T04:55:11.475Z,1.50
2019-03-08T04:57:39.860Z,1.30
2019-03-08T05:00:11.452Z,1.60
2019-03-08T05:02:39.902Z,2.03
2019-03-08T05:05:08.349Z,1.63
2019-03-08T05:07:36.732Z,1.50
2019-03-08T05:10:11.259Z,1.00
2019-03-08T05:12:40.008Z,1.77
2019-03-08T05:15:08.387Z,1.30
2019-03-08T05:17:36.767Z,2.53
2019-03-08T05:20:07.487Z,1.67
2019-03-08T05:22:35.902Z,1.73
2019-03-08T05:25:06.751Z,2.80
2019-03-08T05:27:35.316Z,2.70
2019-03-08T05:30:04.932Z,3.53
2019-03-08T05:32:33.327Z,4.27
2019-03-08T05:35:01.710Z,4.87
2019-03-08T05:37:30.100Z,3.80
2019-03-08T05:39:58.475Z,5.33
2019-03-08T05:42:26.940Z,5.27
2019-03-08T05:44:55.311Z,5.60
2019-03-08T05:47:23.692Z,4.47
2019-03-08T05:49:52.109Z,3.83
2019-03-08T05:52:20.735Z,3.30
2019-03-08T05:54:49.087Z,7.83
2019-03-08T05:57:17.831Z,6.23
2019-03-08T05:59:46.210Z,5.77
2019-03-08T06:02:14.607Z,5.33
2019-03-08T06:04:43.114Z,6.53
2019-03-08T06:07:11.528Z,5.07
2019-03-08T06:09:39.916Z,5.90
2019-03-08T06:12:08.307Z,8.70
2019-03-08T06:14:36.672Z,6.67
2019-03-08T06:17:05.043Z,3.70
2019-03-08T06:19:33.452Z,5.57
2019-03-08T06:22:01.884Z,7.33
2019-03-08T06:24:30.274Z,3.67
2019-03-08T06:26:58.644Z,3.87
2019-03-08T06:29:27.202Z,3.30
2019-03-08T06:31:55.588Z,4.63
2019-03-08T06:34:24.012Z,4.17
2019-03-08T06:36:52.404Z,6.57
2019-03-08T06:39:20.768Z,4.00
2019-03-08T06:41:49.139Z,3.20
2019-03-08T06:44:17.967Z,6.40
2019-03-08T06:46:46.342Z,3.07
2019-03-08T06:49:14.723Z,3.67
2019-03-08T06:51:43.100Z,5.93
2019-03-08T06:54:11.483Z,3.40
2019-03-08T06:56:39.864Z,4.40
2019-03-08T06:59:15.719Z,7.57
2019-03-08T07:01:44.099Z,5.17
2019-03-08T07:04:12.471Z,2.87
2019-03-08T07:06:40.839Z,4.73
2019-03-08T07:09:17.731Z,5.73
2019-03-08T07:11:46.343Z,5.20
2019-03-08T07:14:14.727Z,5.70
2019-03-08T07:16:43.104Z,5.43
2019-03-08T07:19:11.476Z,3.67
2019-03-08T07:21:41.508Z,6.47
2019-03-08T07:24:14.544Z,5.60
2019-03-08T07:26:56.829Z,4.93
2019-03-08T07:29:43.267Z,5.77
2019-03-08T07:32:17.624Z,7.83
2019-03-08T07:34:47.927Z,5.50
2019-03-08T07:37:26.979Z,7.63
2019-03-08T07:39:59.808Z,3.87
2019-03-08T07:42:45.831Z,7.00
2019-03-08T07:45:32.396Z,4.10
2019-03-08T07:48:05.384Z,6.80
2019-03-08T07:50:41.372Z,5.00
2019-03-08T07:53:26.718Z,7.37
2019-03-08T07:56:08.759Z,5.97
2019-03-08T07:58:38.768Z,5.00
2019-03-08T08:01:08.851Z,5.60
2019-03-08T08:03:41.839Z,6.13
2019-03-08T08:06:23.748Z,5.23
2019-03-08T08:09:11.573Z,3.57
2019-03-08T08:11:56.757Z,5.00
2019-03-08T08:14:26.783Z,6.03
2019-03-08T08:17:08.819Z,3.33
2019-03-08T08:19:55.357Z,7.00
2019-03-08T08:22:28.095Z,3.87
2019-03-08T08:25:04.020Z,6.63
2019-03-08T08:27:50.587Z,4.40
2019-03-08T08:30:26.843Z,5.50
2019-03-08T08:33:12.313Z,4.37
2019-03-08T08:35:45.264Z,5.47
2019-03-08T08:38:15.283Z,3.70
2019-03-08T08:41:01.839Z,3.33
2019-03-08T08:43:47.811Z,3.80
2019-03-08T08:46:35.684Z,2.40
2019-03-08T08:49:05.779Z,3.67
2019-03-08T08:51:38.711Z,2.63
2019-03-08T08:54:25.155Z,2.87
2019-03-08T08:57:01.290Z,2.27
2019-03-08T08:59:34.445Z,2.63
2019-03-08T09:02:07.403Z,2.50
2019-03-08T09:04:37.435Z,4.10
2019-03-08T09:07:07.537Z,1.70
2019-03-08T09:09:46.716Z,3.53
2019-03-08T09:12:19.536Z,3.43
2019-03-08T09:14:55.367Z,1.80
2019-03-08T09:17:25.398Z,1.90
2019-03-08T09:19:59.346Z,1.60
2019-03-08T09:22:29.463Z,2.37
2019-03-08T09:25:02.476Z,2.27
2019-03-08T09:27:35.431Z,1.70
2019-03-08T09:30:08.912Z,1.10
2019-03-08T09:32:44.755Z,1.27
2019-03-08T09:35:20.886Z,2.03
2019-03-08T09:37:50.908Z,1.77
2019-03-08T09:40:20.987Z,2.37
2019-03-08T09:42:56.732Z,2.53
2019-03-08T09:45:26.816Z,2.13
2019-03-08T09:48:13.184Z,2.13
2019-03-08T09:50:43.378Z,2.80
2019-03-08T09:53:13.392Z,2.93
2019-03-08T09:55:58.368Z,2.20
2019-03-08T09:58:30.871Z,2.23
2019-03-08T10:01:16.187Z,3.07
2019-03-08T10:03:38.956Z,2.13
2019-03-08T10:06:11.948Z,1.40
2019-03-08T10:08:57.096Z,2.50
2019-03-08T10:11:38.901Z,1.90
2019-03-08T10:14:11.898Z,3.43
2019-03-08T10:16:47.927Z,3.03
2019-03-08T10:19:18.127Z,2.37
2019-03-08T10:21:52.930Z,1.40
2019-03-08T10:24:23.068Z,1.67
2019-03-08T10:26:53.091Z,2.20
2019-03-08T10:29:39.736Z,3.23
2019-03-08T10:32:12.724Z,2.97
2019-03-08T10:34:57.472Z,3.10
2019-03-08T10:37:44.145Z,2.70
2019-03-08T10:40:20.583Z,1.83
2019-03-08T10:42:53.583Z,1.80
2019-03-08T10:45:29.076Z,1.87
2019-03-08T10:47:59.109Z,1.53
2019-03-08T10:50:29.128Z,1.83
2019-03-08T10:52:59.157Z,1.87
2019-03-08T10:55:29.179Z,2.53
2019-03-08T10:58:15.248Z,1.27
2019-03-08T11:00:45.263Z,2.00
2019-03-08T11:03:24.465Z,2.90
2019-03-08T11:05:54.480Z,1.70
2019-03-08T11:08:41.446Z,3.33
2019-03-08T11:11:29.828Z,2.30
2019-03-08T11:13:59.855Z,3.07
2019-03-08T11:16:35.976Z,3.03
2019-03-08T11:19:08.944Z,2.60
2019-03-08T11:21:54.180Z,2.63
2019-03-08T11:24:24.425Z,2.17
2019-03-08T11:26:54.452Z,3.07
2019-03-08T11:29:40.759Z,2.57
2019-03-08T11:32:23.141Z,2.73
2019-03-08T11:34:52.340Z,1.63
2019-03-08T11:37:37.715Z,2.30
2019-03-08T11:40:13.415Z,2.50
2019-03-08T11:42:43.443Z,1.37
2019-03-08T11:45:18.948Z,1.80
2019-03-08T11:47:57.947Z,2.50
2019-03-08T11:50:27.963Z,2.33
2019-03-08T11:53:01.048Z,1.90
2019-03-08T11:55:40.351Z,2.13
2019-03-08T11:58:28.813Z,1.60
2019-03-08T12:00:58.994Z,2.20
2019-03-08T12:03:31.709Z,2.10
2019-03-08T12:06:04.725Z,2.60
2019-03-08T12:08:50.909Z,1.60
2019-03-08T12:11:33.259Z,2.70
2019-03-08T12:14:09.208Z,1.90
2019-03-08T12:16:48.207Z,2.27
2019-03-08T12:19:18.246Z,2.13
2019-03-08T12:21:48.268Z,2.47
2019-03-08T12:24:27.062Z,2.70
2019-03-08T12:26:57.104Z,2.30
2019-03-08T12:29:29.856Z,2.40
2019-03-08T12:32:02.688Z,1.70
2019-03-08T12:34:35.123Z,2.23
2019-03-08T12:37:10.845Z,2.77
2019-03-08T12:39:43.560Z,2.03
2019-03-08T12:42:30.113Z,2.00
2019-03-08T12:45:00.132Z,2.13
2019-03-08T12:47:35.867Z,1.90
2019-03-08T12:50:16.900Z,2.47
2019-03-08T12:52:46.932Z,1.20
2019-03-08T12:55:16.964Z,2.20
2019-03-08T12:57:50.127Z,3.07
2019-03-08T13:00:28.903Z,2.40
2019-03-08T13:03:01.961Z,2.93
2019-03-08T13:05:47.327Z,2.60
2019-03-08T13:08:20.279Z,3.03
2019-03-08T13:10:48.652Z,2.17
2019-03-08T13:13:17.047Z,1.50
2019-03-08T13:15:45.429Z,1.90
2019-03-08T13:18:13.807Z,1.13
2019-03-08T13:20:42.372Z,1.70
2019-03-08T13:23:10.753Z,0.80
2019-03-08T13:25:39.131Z,1.40
2019-03-08T13:28:07.523Z,1.87
2019-03-08T13:30:35.891Z,1.13
2019-03-08T13:33:04.276Z,1.33
2019-03-08T13:35:32.651Z,0.80
2019-03-08T13:38:01.035Z,1.47
2019-03-08T13:40:29.415Z,1.10
2019-03-08T13:42:57.800Z,1.40
2019-03-08T13:45:26.179Z,1.17
2019-03-08T13:47:54.547Z,0.97
2019-03-08T13:50:22.949Z,1.30
2019-03-08T13:52:51.317Z,1.70
2019-03-08T13:55:19.699Z,1.90
2019-03-08T13:57:48.075Z,1.40
2019-03-08T14:00:17.708Z,1.97
2019-03-08T14:02:46.080Z,1.80
2019-03-08T14:05:15.091Z,1.23
2019-03-08T14:07:43.717Z,1.07
2019-03-08T14:10:22.433Z,1.43
2019-03-08T14:12:50.895Z,1.53
2019-03-08T14:15:19.280Z,1.40
2019-03-08T14:17:47.661Z,0.90
2019-03-08T14:20:26.903Z,1.00
2019-03-08T14:22:55.287Z,0.97
2019-03-08T14:25:23.743Z,1.00
2019-03-08T14:27:52.121Z,1.30
2019-03-08T14:30:32.175Z,1.30
2019-03-08T14:33:01.554Z,1.63
2019-03-08T14:35:30.791Z,0.93
2019-03-08T14:37:59.395Z,1.20
2019-03-08T14:40:35.141Z,1.70
2019-03-08T14:43:17.905Z,0.70
2019-03-08T14:46:04.487Z,2.00
2019-03-08T14:48:32.940Z,1.03
2019-03-08T14:51:01.403Z,1.03
2019-03-08T14:53:32.740Z,1.23
2019-03-08T14:55:59.966Z,0.90
2019-03-08T14:58:28.452Z,1.20
2019-03-08T15:00:56.840Z,1.10
2019-03-08T15:03:25.232Z,1.10
2019-03-08T15:05:54.885Z,1.10
2019-03-08T15:08:23.735Z,1.30
2019-03-08T15:10:52.114Z,1.23
2019-03-08T15:13:24.099Z,0.90
2019-03-08T15:15:50.631Z,1.13
2019-03-08T15:18:18.980Z,1.13
2019-03-08T15:20:47.365Z,1.27
2019-03-08T15:23:17.231Z,1.07
2019-03-08T15:25:48.971Z,1.20
2019-03-08T15:28:16.028Z,1.00
2019-03-08T15:30:44.596Z,1.20
2019-03-08T15:33:12.983Z,1.40
2019-03-08T15:35:41.357Z,1.77
2019-03-08T15:38:10.194Z,0.97
2019-03-08T15:40:38.676Z,0.80
2019-03-08T15:43:09.710Z,1.07
2019-03-08T15:45:39.976Z,1.30
2019-03-08T15:48:10.813Z,1.40
2019-03-08T15:50:37.385Z,1.30
2019-03-08T15:53:05.757Z,1.40
2019-03-08T15:55:53.490Z,1.70
2019-03-08T15:58:21.859Z,1.50
2019-03-08T16:00:50.252Z,1.67
2019-03-08T16:03:18.638Z,1.87
2019-03-08T16:05:47.020Z,1.70
2019-03-08T16:08:15.422Z,1.87
2019-03-08T16:10:43.816Z,1.97
2019-03-08T16:13:12.188Z,1.60
2019-03-08T16:15:40.565Z,1.43
2019-03-08T16:18:08.947Z,1.90
2019-03-08T16:20:38.520Z,1.70
2019-03-08T16:23:08.427Z,1.70
2019-03-08T16:25:41.090Z,2.00
2019-03-08T16:28:07.116Z,2.13
2019-03-08T16:30:43.895Z,1.60
2019-03-08T16:33:22.200Z,2.00
2019-03-08T16:35:59.432Z,1.60
2019-03-08T16:38:29.311Z,1.50
2019-03-08T16:41:17.251Z,0.93
2019-03-08T16:43:47.048Z,2.33
2019-03-08T16:46:35.244Z,1.30
2019-03-08T16:49:20.292Z,1.37
2019-03-08T16:51:50.083Z,1.30
2019-03-08T16:54:19.881Z,1.70
2019-03-08T16:56:49.895Z,2.10
2019-03-08T16:59:36.456Z,1.37
2019-03-08T17:02:12.488Z,1.80
2019-03-08T17:04:42.515Z,1.63
2019-03-08T17:07:15.503Z,1.73
2019-03-08T17:12:43.116Z,0.90
2019-03-08T17:15:13.202Z,2.37
2019-03-08T17:17:55.008Z,1.70
2019-03-08T17:20:25.036Z,2.97
2019-03-08T17:23:01.023Z,1.93
2019-03-08T17:28:24.705Z,2.40
2019-03-08T17:30:58.360Z,1.33
2019-03-08T17:33:31.236Z,2.10
2019-03-08T17:36:17.431Z,2.00
2019-03-08T17:38:59.779Z,2.20
2019-03-08T17:41:29.804Z,1.77
2019-03-08T17:43:59.823Z,2.13
2019-03-08T17:46:29.840Z,2.17
2019-03-08T17:49:02.835Z,2.30
2019-03-08T17:51:38.693Z,2.73
2019-03-08T17:54:08.703Z,2.40
2019-03-08T17:56:44.481Z,1.53
2019-03-08T17:59:33.832Z,1.80
2019-03-08T18:02:19.981Z,1.73
2019-03-08T18:04:50.376Z,2.23
2019-03-08T18:07:20.395Z,2.63
2019-03-08T18:09:59.212Z,1.63
2019-03-08T18:12:29.232Z,2.30
2019-03-08T18:14:59.262Z,2.00
2019-03-08T18:17:45.547Z,2.30
2019-03-08T18:20:32.177Z,1.77
2019-03-08T18:23:11.184Z,2.07
2019-03-08T18:25:41.211Z,1.63
2019-03-08T18:28:29.587Z,1.90
2019-03-08T18:31:05.585Z,1.73
2019-03-08T18:33:35.611Z,1.47
2019-03-08T18:36:05.632Z,2.63
2019-03-08T18:38:38.466Z,2.67
2019-03-08T18:41:08.478Z,1.73
2019-03-08T18:43:47.535Z,2.13
2019-03-08T18:46:20.521Z,2.87
2019-03-08T18:48:50.560Z,3.10
2019-03-08T18:51:20.575Z,3.50
2019-03-08T18:54:06.848Z,2.97
2019-03-08T18:56:49.139Z,2.50
2019-03-08T18:59:19.180Z,5.00
2019-03-08T19:01:49.199Z,3.13
2019-03-08T19:04:31.171Z,4.03
2019-03-08T19:07:01.192Z,3.13
2019-03-08T19:09:37.192Z,2.83
2019-03-08T19:12:25.095Z,3.33
2019-03-08T19:15:06.909Z,3.00
2019-03-08T19:17:36.935Z,3.03
2019-03-08T19:20:26.468Z,3.30
2019-03-08T19:23:05.860Z,3.37
2019-03-08T19:25:41.388Z,2.97
2019-03-08T19:28:11.425Z,3.67
2019-03-08T19:30:58.171Z,4.13
2019-03-08T19:33:34.183Z,4.37
2019-03-08T19:36:09.746Z,2.80
2019-03-08T19:38:39.772Z,3.33
2019-03-08T19:41:09.808Z,3.20
2019-03-08T19:43:45.784Z,3.33
2019-03-08T19:46:15.816Z,3.20
2019-03-08T19:48:51.596Z,2.73
2019-03-08T19:51:39.724Z,3.17
2019-03-08T19:54:09.751Z,3.13
2019-03-08T19:56:39.764Z,3.10
2019-03-08T19:59:09.974Z,3.60
2019-03-08T20:01:54.983Z,2.90
2019-03-08T20:04:31.020Z,3.13
2019-03-08T20:07:17.204Z,4.70
2019-03-08T20:09:56.516Z,3.10
2019-03-08T20:12:35.327Z,3.80
2019-03-08T20:15:13.455Z,3.70
2019-03-08T20:17:49.424Z,4.50
2019-03-08T20:20:21.979Z,3.10
2019-03-08T20:23:10.039Z,2.70
2019-03-08T20:25:46.115Z,4.23
2019-03-08T20:28:16.135Z,4.20
2019-03-08T20:31:04.224Z,2.97
2019-03-08T20:33:34.251Z,4.10
2019-03-08T20:36:04.275Z,3.73
2019-03-08T20:38:37.012Z,3.67
2019-03-08T20:41:07.039Z,3.60
2019-03-08T20:43:49.362Z,3.17
2019-03-08T20:46:19.386Z,3.60
2019-03-08T20:48:47.763Z,3.47
2019-03-08T20:51:16.155Z,3.37
2019-03-08T20:53:44.532Z,3.40
2019-03-08T20:56:12.921Z,3.47
2019-03-08T20:58:41.299Z,2.37
2019-03-08T21:01:09.672Z,2.10
2019-03-08T21:03:38.436Z,3.47
2019-03-08T21:06:06.812Z,2.00
2019-03-08T21:08:35.204Z,2.80
2019-03-08T21:11:03.583Z,2.50
2019-03-08T21:13:31.965Z,1.87
2019-03-08T21:16:00.352Z,2.73
2019-03-08T21:18:28.904Z,2.47
2019-03-08T21:20:57.293Z,3.00
2019-03-08T21:23:25.744Z,2.50
2019-03-08T21:25:54.125Z,2.33
2019-03-08T21:28:22.536Z,2.43
2019-03-08T21:30:50.911Z,2.23
2019-03-08T21:33:19.293Z,1.93
2019-03-08T21:35:47.685Z,1.83
2019-03-08T21:38:16.063Z,2.77
2019-03-08T21:40:44.447Z,1.97
2019-03-08T21:43:12.832Z,2.23
2019-03-08T21:45:41.617Z,1.67
2019-03-08T21:48:10.049Z,2.27
2019-03-08T21:50:38.432Z,1.37
2019-03-08T21:53:06.816Z,1.50
2019-03-08T21:55:35.192Z,2.30
2019-03-08T21:58:03.750Z,1.00
2019-03-08T22:00:32.124Z,1.97
2019-03-08T22:03:00.753Z,2.17
2019-03-08T22:05:30.770Z,2.67
2019-03-08T22:08:00.716Z,1.50
2019-03-08T22:10:33.917Z,2.53
2019-03-08T22:13:02.276Z,2.60
2019-03-08T22:15:30.655Z,2.40
2019-03-08T22:17:59.028Z,2.10
2019-03-08T22:20:27.400Z,2.23
2019-03-08T22:22:55.775Z,1.47
2019-03-08T22:25:25.169Z,1.20
2019-03-08T22:27:53.551Z,2.27
2019-03-08T22:30:22.295Z,2.37
2019-03-08T22:32:50.685Z,2.33
2019-03-08T22:35:19.059Z,1.40
2019-03-08T22:37:47.451Z,2.50
2019-03-08T22:40:15.827Z,2.27
2019-03-08T22:42:44.204Z,2.73
2019-03-08T22:45:12.759Z,2.10
2019-03-08T22:47:41.136Z,2.90
2019-03-08T22:50:14.624Z,1.93
2019-03-08T22:52:43.000Z,2.10
2019-03-08T22:55:13.331Z,2.07
2019-03-08T22:57:41.705Z,1.70
2019-03-08T23:00:13.945Z,2.20
2019-03-08T23:02:42.319Z,1.00
2019-03-08T23:05:10.695Z,1.63
2019-03-08T23:07:39.080Z,1.77
2019-03-08T23:10:10.535Z,1.13
2019-03-08T23:12:38.907Z,1.97
2019-03-08T23:15:08.831Z,1.83
2019-03-08T23:17:37.220Z,1.40
2019-03-08T23:20:07.832Z,1.40
2019-03-08T23:22:36.204Z,1.53
2019-03-08T23:25:05.036Z,1.47
2019-03-08T23:27:35.064Z,1.10
2019-03-08T23:30:05.268Z,1.17
2019-03-08T23:32:35.531Z,1.10
2019-03-08T23:35:04.751Z,1.20
2019-03-08T23:37:33.127Z,1.40
2019-03-08T23:40:02.497Z,1.43
2019-03-08T23:42:31.035Z,0.93
2019-03-08T23:44:59.412Z,1.60
2019-03-08T23:47:27.798Z,0.93
2019-03-08T23:49:56.190Z,1.27
2019-03-08T23:52:24.564Z,1.03
2019-03-08T23:54:52.948Z,1.30
2019-03-08T23:57:21.320Z,1.50
2019-03-08T23:59:49.704Z,1.30
